Time;durP1;ratioP1;P1;durP2;ratioP2;P2;SDS_P1;SDS_P2;PMS_P1;PMS_P2;Temp;Humidity;BMP_temperature;BMP_pressure;BME280_temperature;BME280_humidity;BME280_pressure;Samples;Min_cycle;Max_cycle;Signal;HPM_P1;HPM_P2
2021/12/06 00:01:36;;;;;;;3.33;0.70;;;9.90;75.20;;;;;;5113303;28;20078;-71
2021/12/06 00:04:20;;;;;;;3.35;0.90;;;9.90;75.00;;;;;;5095499;28;20031;-72
2021/12/06 00:06:50;;;;;;;2.28;0.60;;;9.90;75.00;;;;;;5143565;27;20050;-71
2021/12/06 00:09:19;;;;;;;2.05;0.63;;;9.80;75.00;;;;;;5112041;28;20039;-71
2021/12/06 00:11:45;;;;;;;2.45;0.75;;;9.90;75.00;;;;;;5109965;28;20505;-71
2021/12/06 00:14:10;;;;;;;1.63;0.70;;;9.90;74.90;;;;;;5111231;28;20024;-71
2021/12/06 00:16:37;;;;;;;3.35;0.90;;;9.80;74.70;;;;;;5112705;28;20024;-71
2021/12/06 00:19:04;;;;;;;3.53;0.60;;;9.80;74.70;;;;;;5110819;28;20034;-70
2021/12/06 00:21:30;;;;;;;2.78;0.80;;;9.80;74.70;;;;;;5115002;28;20081;-71
2021/12/06 00:23:56;;;;;;;4.32;1.60;;;9.70;74.60;;;;;;5111320;28;20384;-70
2021/12/06 00:26:22;;;;;;;2.45;0.65;;;9.70;74.70;;;;;;5111208;28;20115;-71
2021/12/06 00:28:55;;;;;;;3.20;0.68;;;9.70;74.70;;;;;;5110927;28;20107;-71
2021/12/06 00:31:21;;;;;;;4.00;0.80;;;9.70;74.50;;;;;;5111152;28;20028;-72
2021/12/06 00:33:52;;;;;;;4.00;1.00;;;9.70;74.60;;;;;;5113380;28;20461;-70
2021/12/06 00:36:26;;;;;;;4.05;1.08;;;9.70;74.80;;;;;;5113294;28;20073;-71
2021/12/06 00:38:53;;;;;;;3.90;0.82;;;9.70;74.70;;;;;;5110616;28;20024;-71
2021/12/06 00:41:18;;;;;;;2.15;0.73;;;9.60;74.80;;;;;;5110644;28;20049;-71
2021/12/06 00:43:44;;;;;;;2.40;0.90;;;9.60;74.70;;;;;;5109036;28;20099;-70
2021/12/06 00:46:10;;;;;;;3.50;1.08;;;9.60;74.90;;;;;;5110558;28;20104;-71
2021/12/06 00:48:35;;;;;;;3.08;0.82;;;9.60;74.80;;;;;;5112962;28;20059;-70
2021/12/06 00:51:01;;;;;;;2.10;0.60;;;9.50;75.00;;;;;;5105163;28;20032;-71
2021/12/06 00:53:27;;;;;;;4.30;0.90;;;9.50;75.00;;;;;;5110057;28;20044;-71
2021/12/06 00:55:53;;;;;;;4.13;0.93;;;9.50;74.80;;;;;;5110671;28;20019;-70
2021/12/06 00:58:19;;;;;;;2.17;0.90;;;9.50;74.90;;;;;;5108177;27;20034;-71
2021/12/06 01:00:48;;;;;;;3.17;1.10;;;9.40;75.10;;;;;;5110359;28;20536;-71
2021/12/06 01:03:19;;;;;;;3.33;1.00;;;9.50;75.30;;;;;;5097132;28;20024;-70
2021/12/06 01:05:45;;;;;;;5.45;1.52;;;9.50;75.30;;;;;;5097427;28;20081;-71
2021/12/06 01:08:11;;;;;;;3.80;1.50;;;9.50;75.40;;;;;;5103686;28;20050;-71
2021/12/06 01:10:38;;;;;;;3.00;1.30;;;9.50;74.90;;;;;;5109453;28;20023;-71
2021/12/06 01:13:04;;;;;;;3.33;1.25;;;9.50;74.80;;;;;;5110252;28;20114;-71
2021/12/06 01:15:32;;;;;;;3.50;1.60;;;9.50;75.10;;;;;;5099995;28;20337;-70
2021/12/06 01:17:59;;;;;;;5.97;1.95;;;9.50;75.20;;;;;;5110466;28;20518;-70
2021/12/06 01:20:29;;;;;;;4.97;1.92;;;9.60;75.10;;;;;;5095621;28;20031;-71
2021/12/06 01:23:00;;;;;;;4.07;1.80;;;9.60;75.10;;;;;;5104521;28;20042;-71
2021/12/06 01:25:37;;;;;;;4.40;1.77;;;9.60;75.00;;;;;;5110032;28;20023;-70
2021/12/06 01:41:24;;;;;;;4.82;1.33;;;9.60;74.80;;;;;;5108784;28;20034;-71
2021/12/06 01:44:02;;;;;;;3.67;1.05;;;9.60;74.90;;;;;;5109554;28;20019;-71
2021/12/06 01:46:28;;;;;;;2.95;1.00;;;9.60;74.80;;;;;;5111385;28;20036;-71
2021/12/06 01:48:54;;;;;;;2.55;0.82;;;9.60;74.80;;;;;;5094246;28;20057;-71
2021/12/06 01:51:20;;;;;;;2.45;0.80;;;9.60;74.90;;;;;;5111868;28;20480;-70
2021/12/06 01:53:45;;;;;;;3.45;1.10;;;9.60;74.90;;;;;;5108611;28;20071;-71
2021/12/06 01:56:11;;;;;;;3.20;1.10;;;9.60;74.70;;;;;;5108902;28;20377;-71
2021/12/06 01:58:37;;;;;;;3.20;0.80;;;9.60;75.10;;;;;;5109695;28;20437;-71
2021/12/06 02:01:03;;;;;;;2.58;1.00;;;9.60;74.80;;;;;;5093167;28;20032;-71
2021/12/06 02:03:29;;;;;;;2.80;0.80;;;9.60;74.90;;;;;;5113535;28;20395;-71
2021/12/06 02:05:54;;;;;;;5.68;1.50;;;9.60;75.30;;;;;;5109703;28;20045;-71
2021/12/06 02:08:20;;;;;;;4.00;0.93;;;9.60;74.90;;;;;;5109589;28;20500;-70
2021/12/06 02:10:46;;;;;;;3.10;0.75;;;9.60;75.10;;;;;;5108983;28;20088;-71
2021/12/06 02:13:12;;;;;;;4.43;1.00;;;9.60;75.10;;;;;;5109469;28;20067;-71
2021/12/06 02:15:44;;;;;;;5.32;1.08;;;9.70;75.30;;;;;;5111426;28;20022;-70
2021/12/06 02:18:26;;;;;;;4.80;1.13;;;9.60;75.30;;;;;;5112771;28;20060;-71
2021/12/06 02:21:01;;;;;;;2.85;0.70;;;9.70;75.30;;;;;;5101297;28;20043;-71
2021/12/06 02:23:27;;;;;;;3.45;0.90;;;9.70;75.30;;;;;;5109389;28;20039;-71
2021/12/06 02:25:53;;;;;;;1.77;0.65;;;9.60;75.00;;;;;;5095221;28;20030;-71
2021/12/06 02:28:19;;;;;;;3.72;0.90;;;9.60;75.00;;;;;;5109537;28;20024;-71
2021/12/06 02:30:44;;;;;;;3.35;0.82;;;9.70;75.40;;;;;;5111769;28;20054;-71
2021/12/06 02:33:10;;;;;;;3.53;1.10;;;9.60;75.30;;;;;;5110704;28;20098;-71
2021/12/06 02:35:37;;;;;;;3.15;0.70;;;9.60;75.30;;;;;;5108909;28;20019;-71
2021/12/06 02:38:07;;;;;;;2.53;0.88;;;9.70;75.60;;;;;;5109087;28;20023;-71
2021/12/06 02:40:35;;;;;;;3.33;0.70;;;9.60;75.60;;;;;;5091752;28;20463;-71
2021/12/06 02:43:02;;;;;;;2.80;0.93;;;9.60;75.40;;;;;;5091643;28;20392;-71
2021/12/06 02:45:30;;;;;;;2.30;0.77;;;9.60;75.60;;;;;;5103993;28;20529;-71
2021/12/06 02:47:57;;;;;;;3.17;0.70;;;9.70;75.80;;;;;;5109289;28;20031;-70
2021/12/06 02:50:28;;;;;;;4.68;0.80;;;9.60;75.50;;;;;;5108880;28;20015;-71
2021/12/06 02:52:55;;;;;;;3.22;0.77;;;9.60;75.50;;;;;;5108424;28;20020;-71
2021/12/06 02:55:35;;;;;;;2.67;0.80;;;9.60;75.70;;;;;;5109060;28;20452;-71
2021/12/06 02:58:18;;;;;;;4.53;0.70;;;9.60;75.90;;;;;;5094472;28;20095;-71
2021/12/06 03:00:47;;;;;;;2.17;0.63;;;9.60;76.20;;;;;;5109243;28;20031;-71
2021/12/06 03:03:16;;;;;;;4.72;0.77;;;9.70;76.00;;;;;;5110589;28;20117;-71
2021/12/06 03:05:42;;;;;;;2.10;0.60;;;9.60;76.00;;;;;;5108130;28;20492;-71
2021/12/06 03:08:08;;;;;;;4.78;0.80;;;9.70;76.20;;;;;;5108389;28;20030;-71
2021/12/06 03:10:34;;;;;;;4.15;1.20;;;9.60;76.30;;;;;;5108788;28;20457;-71
2021/12/06 03:13:00;;;;;;;3.20;0.90;;;9.60;76.50;;;;;;5107456;28;20063;-71
2021/12/06 03:15:26;;;;;;;3.95;0.77;;;9.60;76.50;;;;;;5103260;28;20058;-71
2021/12/06 03:17:52;;;;;;;5.00;0.88;;;9.60;76.30;;;;;;5095299;28;20035;-71
2021/12/06 03:20:18;;;;;;;2.17;0.60;;;9.60;76.50;;;;;;5108701;28;20024;-71
2021/12/06 03:22:45;;;;;;;5.20;0.80;;;9.60;76.40;;;;;;5108154;28;20028;-70
2021/12/06 03:25:13;;;;;;;1.95;0.80;;;9.60;76.30;;;;;;5108701;28;20024;-71
2021/12/06 03:27:39;;;;;;;2.70;0.55;;;9.60;76.40;;;;;;5110970;28;20028;-70
2021/12/06 03:30:08;;;;;;;3.38;0.80;;;9.70;76.70;;;;;;5111279;28;20031;-71
2021/12/06 03:32:34;;;;;;;3.72;0.90;;;9.70;76.50;;;;;;5094979;28;20062;-71
2021/12/06 03:35:00;;;;;;;2.58;0.80;;;9.70;76.40;;;;;;5108365;28;20044;-71
2021/12/06 03:37:26;;;;;;;2.67;0.80;;;9.70;76.30;;;;;;5108312;28;20518;-71
2021/12/06 03:39:52;;;;;;;3.28;0.70;;;9.60;76.40;;;;;;5110109;28;20059;-71
2021/12/06 03:42:21;;;;;;;4.43;0.70;;;9.70;76.60;;;;;;5110665;28;20106;-71
2021/12/06 03:44:47;;;;;;;3.53;0.85;;;9.70;76.40;;;;;;5108527;28;20020;-71
2021/12/06 03:47:26;;;;;;;3.22;0.90;;;9.70;76.30;;;;;;5108333;28;20020;-71
2021/12/06 03:49:52;;;;;;;2.85;0.65;;;9.70;76.50;;;;;;5108622;28;20122;-71
2021/12/06 03:52:18;;;;;;;4.15;0.95;;;9.70;76.50;;;;;;5102236;28;20462;-72
2021/12/06 03:54:44;;;;;;;2.25;0.70;;;9.80;76.70;;;;;;5111070;28;20040;-71
2021/12/06 03:57:10;;;;;;;3.47;0.80;;;9.80;76.40;;;;;;5095790;28;20072;-71
2021/12/06 03:59:36;;;;;;;3.55;0.68;;;9.70;76.00;;;;;;5094599;28;20020;-71
2021/12/06 04:02:02;;;;;;;4.18;0.80;;;9.70;76.40;;;;;;5110133;28;20039;-71
2021/12/06 04:04:28;;;;;;;5.82;0.82;;;9.70;76.40;;;;;;5107926;28;20024;-71
2021/12/06 04:06:55;;;;;;;5.22;0.95;;;9.70;76.40;;;;;;5091994;28;20174;-71
2021/12/06 04:09:21;;;;;;;4.65;0.82;;;9.70;76.30;;;;;;5111041;28;20072;-72
2021/12/06 04:11:47;;;;;;;4.07;0.52;;;9.70;76.70;;;;;;5108143;28;20486;-72
2021/12/06 04:14:14;;;;;;;2.58;0.47;;;9.70;76.10;;;;;;5108165;28;20016;-71
2021/12/06 04:16:40;;;;;;;4.43;0.80;;;9.70;76.10;;;;;;5108540;28;20024;-71
2021/12/06 04:19:08;;;;;;;2.35;0.65;;;9.60;76.10;;;;;;5105272;27;20027;-71
2021/12/06 04:21:35;;;;;;;2.80;1.00;;;9.60;76.10;;;;;;5115097;28;20038;-71
2021/12/06 04:24:02;;;;;;;1.67;0.45;;;9.50;76.10;;;;;;5112608;28;20020;-71
2021/12/06 04:26:28;;;;;;;3.70;0.60;;;9.50;75.90;;;;;;5111767;28;20023;-71
2021/12/06 04:29:01;;;;;;;4.45;1.48;;;9.40;75.90;;;;;;5111684;28;20115;-71
2021/12/06 04:31:34;;;;;;;3.60;0.80;;;9.40;75.70;;;;;;5094277;28;20077;-71
2021/12/06 04:34:00;;;;;;;2.60;0.77;;;9.30;75.80;;;;;;5111643;28;20031;-71
2021/12/06 04:36:26;;;;;;;3.20;0.65;;;9.30;76.00;;;;;;5115196;28;20024;-71
2021/12/06 04:38:52;;;;;;;1.48;0.47;;;9.30;75.70;;;;;;5111604;28;20080;-71
2021/12/06 04:41:18;;;;;;;3.03;0.77;;;9.30;75.60;;;;;;5111542;28;20043;-70
2021/12/06 04:43:44;;;;;;;4.00;0.90;;;9.20;75.30;;;;;;5111214;28;20019;-71
2021/12/06 04:46:10;;;;;;;4.35;0.90;;;9.20;75.40;;;;;;5111450;28;20554;-71
2021/12/06 04:48:35;;;;;;;3.03;0.60;;;9.10;75.60;;;;;;5099421;28;20074;-71
2021/12/06 04:51:01;;;;;;;2.28;0.65;;;9.10;75.60;;;;;;5110845;28;20591;-71
2021/12/06 04:53:36;;;;;;;2.60;0.70;;;9.10;75.80;;;;;;5106988;28;20035;-71
2021/12/06 04:56:14;;;;;;;4.50;0.90;;;9.10;75.60;;;;;;5111416;28;20019;-72
2021/12/06 04:58:53;;;;;;;3.20;1.08;;;9.10;75.30;;;;;;5095229;28;20426;-71
2021/12/06 05:01:24;;;;;;;4.60;1.30;;;9.00;74.80;;;;;;5113131;27;20038;-71
2021/12/06 05:03:51;;;;;;;5.13;1.15;;;8.90;75.00;;;;;;5112648;28;20031;-71
2021/12/06 05:06:25;;;;;;;2.67;1.13;;;8.80;75.00;;;;;;5113119;28;20111;-71
2021/12/06 05:08:57;;;;;;;4.93;1.20;;;8.80;75.20;;;;;;5110895;28;20059;-71
2021/12/06 05:11:26;;;;;;;3.30;1.10;;;8.80;75.30;;;;;;5110852;28;20032;-71
2021/12/06 05:13:54;;;;;;;3.28;1.20;;;8.80;75.50;;;;;;5111256;28;20024;-71
2021/12/06 05:16:21;;;;;;;4.20;1.20;;;8.80;75.20;;;;;;5111302;28;20389;-71
2021/12/06 05:18:48;;;;;;;7.63;1.48;;;8.80;75.10;;;;;;5112768;28;20020;-71
2021/12/06 05:21:13;;;;;;;5.00;1.13;;;8.80;75.20;;;;;;5112406;28;20027;-71
2021/12/06 05:23:39;;;;;;;3.97;1.27;;;8.80;74.90;;;;;;5110454;28;20099;-71
2021/12/06 05:26:05;;;;;;;3.30;1.13;;;8.80;75.10;;;;;;5110536;28;20629;-71
2021/12/06 05:28:38;;;;;;;2.95;1.38;;;8.80;75.00;;;;;;5110066;28;20024;-71
2021/12/06 05:31:08;;;;;;;4.43;1.13;;;8.70;74.80;;;;;;5094931;28;20494;-71
2021/12/06 05:33:34;;;;;;;4.20;1.20;;;8.70;74.90;;;;;;5109441;28;20023;-71
2021/12/06 05:36:02;;;;;;;2.88;1.02;;;8.70;75.10;;;;;;5111061;28;20022;-70
2021/12/06 05:38:29;;;;;;;6.05;1.00;;;8.70;75.30;;;;;;5096023;28;20019;-70
2021/12/06 05:40:56;;;;;;;2.75;1.10;;;8.70;75.10;;;;;;5095378;28;20088;-70
2021/12/06 05:43:22;;;;;;;4.53;1.08;;;8.70;75.10;;;;;;5092117;28;20020;-72
2021/12/06 05:45:49;;;;;;;3.47;1.17;;;8.70;75.00;;;;;;5112064;28;20100;-71
2021/12/06 05:48:15;;;;;;;4.95;1.30;;;8.70;75.20;;;;;;5111351;28;20016;-71
2021/12/06 05:50:41;;;;;;;4.40;1.13;;;8.60;75.10;;;;;;5095700;28;20030;-70
2021/12/06 05:53:06;;;;;;;4.05;1.00;;;8.60;75.30;;;;;;5096333;28;20036;-70
2021/12/06 05:55:32;;;;;;;6.55;1.30;;;8.70;75.30;;;;;;5110008;28;20026;-70
2021/12/06 05:58:00;;;;;;;3.75;1.30;;;8.70;75.30;;;;;;5110644;28;20443;-70
2021/12/06 06:00:29;;;;;;;4.28;1.25;;;8.70;75.20;;;;;;5113240;28;20050;-70
2021/12/06 06:02:55;;;;;;;4.63;1.15;;;8.70;75.20;;;;;;5111707;28;20040;-71
2021/12/06 06:05:21;;;;;;;3.42;1.10;;;8.60;74.90;;;;;;5109588;28;20479;-70
2021/12/06 06:07:48;;;;;;;3.60;0.82;;;8.60;75.10;;;;;;5109527;28;20023;-70
2021/12/06 06:10:15;;;;;;;3.05;0.90;;;8.60;75.20;;;;;;5106107;28;20031;-71
2021/12/06 06:12:41;;;;;;;4.15;1.10;;;8.60;75.10;;;;;;5083322;28;20626;-70
2021/12/06 06:15:07;;;;;;;3.25;1.00;;;8.50;75.10;;;;;;5110628;28;20024;-71
2021/12/06 06:17:40;;;;;;;2.67;1.38;;;8.50;75.30;;;;;;5109373;28;20027;-70
2021/12/06 06:20:09;;;;;;;2.40;0.90;;;8.50;75.40;;;;;;5109444;28;20027;-71
2021/12/06 06:22:35;;;;;;;5.43;1.10;;;8.50;75.20;;;;;;5109318;28;20068;-70
2021/12/06 06:25:00;;;;;;;2.70;1.10;;;8.50;75.10;;;;;;5109962;28;20016;-70
2021/12/06 06:27:26;;;;;;;5.13;1.25;;;8.50;75.50;;;;;;5112805;28;20039;-71
2021/12/06 06:29:51;;;;;;;3.83;0.90;;;8.60;75.50;;;;;;5108745;28;20027;-71
2021/12/06 06:32:17;;;;;;;3.28;0.80;;;8.60;75.60;;;;;;5109235;28;20032;-71
2021/12/06 06:34:43;;;;;;;3.95;1.02;;;8.50;75.60;;;;;;5109391;28;20510;-71
2021/12/06 06:37:08;;;;;;;3.95;1.17;;;8.60;75.70;;;;;;5109298;28;20088;-70
2021/12/06 06:39:34;;;;;;;5.10;1.60;;;8.50;75.50;;;;;;5112559;28;20027;-70
2021/12/06 06:42:00;;;;;;;2.28;0.80;;;8.60;75.60;;;;;;5109389;28;20484;-70
2021/12/06 06:44:25;;;;;;;4.47;0.90;;;8.60;75.50;;;;;;5108686;28;20025;-70
2021/12/06 06:46:52;;;;;;;5.10;0.98;;;8.60;75.00;;;;;;5106997;28;20045;-71
2021/12/06 06:49:18;;;;;;;5.63;1.20;;;8.60;75.20;;;;;;5100329;28;20012;-70
2021/12/06 06:51:46;;;;;;;3.63;0.95;;;8.60;75.10;;;;;;5095788;28;20027;-70
2021/12/06 06:54:12;;;;;;;4.93;1.02;;;8.60;75.20;;;;;;5110297;28;20043;-71
2021/12/06 06:56:38;;;;;;;3.67;1.00;;;8.60;75.50;;;;;;5095780;28;20031;-70
2021/12/06 06:59:04;;;;;;;5.95;1.00;;;8.60;75.70;;;;;;5108410;28;20015;-70
2021/12/06 07:01:30;;;;;;;3.30;1.00;;;8.60;75.50;;;;;;5109067;28;20066;-71
2021/12/06 07:03:56;;;;;;;4.90;1.00;;;8.60;75.40;;;;;;5109798;28;20020;-70
2021/12/06 07:06:27;;;;;;;5.68;1.13;;;8.60;75.50;;;;;;5111507;28;20036;-71
2021/12/06 07:08:54;;;;;;;4.38;1.05;;;8.50;75.60;;;;;;5108198;28;20106;-71
2021/12/06 07:11:21;;;;;;;3.92;0.80;;;8.60;75.80;;;;;;5109113;28;20035;-71
2021/12/06 07:13:47;;;;;;;3.15;0.98;;;8.60;75.80;;;;;;5108200;28;20019;-70
2021/12/06 07:16:15;;;;;;;3.92;1.10;;;8.60;75.80;;;;;;5108434;28;20077;-71
2021/12/06 07:18:42;;;;;;;3.72;1.05;;;8.60;75.90;;;;;;5110569;28;20028;-70
2021/12/06 07:21:09;;;;;;;3.33;1.10;;;8.60;76.00;;;;;;5109517;28;20086;-71
2021/12/06 07:23:38;;;;;;;5.10;1.45;;;8.60;75.60;;;;;;5108300;28;20027;-70
2021/12/06 07:26:09;;;;;;;4.13;1.33;;;8.60;75.30;;;;;;5108604;28;20020;-71
2021/12/06 07:28:35;;;;;;;3.28;1.10;;;8.60;75.70;;;;;;5108325;28;20027;-70
2021/12/06 07:31:05;;;;;;;3.30;0.90;;;8.60;75.60;;;;;;5109073;28;20043;-70
2021/12/06 07:33:34;;;;;;;2.75;0.93;;;8.60;75.70;;;;;;5107821;28;20023;-71
2021/12/06 07:36:01;;;;;;;6.53;1.52;;;8.60;75.30;;;;;;5110363;28;20031;-70
2021/12/06 07:38:27;;;;;;;2.63;0.95;;;8.60;75.80;;;;;;5094655;28;20030;-71
2021/12/06 07:40:53;;;;;;;3.42;1.20;;;8.60;75.80;;;;;;5108230;28;20036;-71
2021/12/06 07:43:19;;;;;;;6.45;1.35;;;8.70;75.90;;;;;;5108054;28;20028;-71
2021/12/06 07:45:45;;;;;;;4.00;1.30;;;8.70;75.80;;;;;;5110611;28;20024;-71
2021/12/06 07:48:12;;;;;;;3.72;0.93;;;8.70;75.70;;;;;;5109698;28;20030;-71
2021/12/06 07:50:38;;;;;;;5.50;1.40;;;8.70;75.30;;;;;;5107711;28;20500;-71
2021/12/06 07:53:04;;;;;;;5.03;1.27;;;8.60;75.50;;;;;;5110874;28;20035;-70
2021/12/06 07:55:34;;;;;;;4.70;1.27;;;8.60;76.00;;;;;;5112612;28;20028;-70
2021/12/06 07:58:04;;;;;;;3.90;1.05;;;8.70;75.70;;;;;;5102962;28;20024;-70
2021/12/06 08:00:31;;;;;;;5.20;1.20;;;8.60;75.40;;;;;;5111374;28;20051;-69
2021/12/06 08:02:57;;;;;;;2.97;1.05;;;8.60;76.00;;;;;;5113235;28;20035;-70
2021/12/06 08:05:30;;;;;;;4.43;1.27;;;8.60;75.60;;;;;;5113867;28;20468;-70
2021/12/06 08:08:07;;;;;;;7.20;1.87;;;8.60;75.80;;;;;;5111043;28;20028;-70
2021/12/06 08:10:36;;;;;;;3.58;1.10;;;8.70;76.00;;;;;;5114013;28;20333;-71
2021/12/06 08:13:03;;;;;;;4.85;1.40;;;8.60;75.80;;;;;;5111705;28;20038;-71
2021/12/06 08:15:29;;;;;;;5.10;1.83;;;8.70;76.10;;;;;;5096044;27;20016;-72
2021/12/06 08:17:55;;;;;;;3.72;1.35;;;8.70;75.90;;;;;;5114091;27;20420;-69
2021/12/06 08:20:20;;;;;;;7.38;1.23;;;8.70;75.60;;;;;;5112298;28;20016;-67
2021/12/06 08:22:46;;;;;;;6.70;1.40;;;8.70;75.30;;;;;;5113161;28;20035;-67
2021/12/06 08:25:13;;;;;;;4.78;1.38;;;8.70;76.00;;;;;;5113405;28;20031;-68
2021/12/06 08:27:39;;;;;;;4.82;1.60;;;8.80;76.30;;;;;;5113478;28;20043;-67
2021/12/06 08:30:07;;;;;;;3.13;1.25;;;8.80;75.90;;;;;;5113519;28;20488;-72
2021/12/06 08:32:33;;;;;;;4.97;1.52;;;8.80;75.40;;;;;;5113179;28;20035;-72
2021/12/06 08:34:59;;;;;;;3.33;1.50;;;8.90;75.80;;;;;;5111691;27;20035;-72
2021/12/06 08:37:26;;;;;;;3.95;1.30;;;8.90;75.80;;;;;;5113244;28;20023;-74
2021/12/06 08:39:52;;;;;;;4.38;1.50;;;8.90;75.40;;;;;;5113454;28;20030;-78
2021/12/06 08:42:18;;;;;;;5.43;1.80;;;8.90;75.40;;;;;;5114092;28;20039;-74
2021/12/06 08:44:43;;;;;;;4.32;1.45;;;8.90;75.70;;;;;;5113167;28;20380;-70
2021/12/06 08:47:09;;;;;;;5.32;1.20;;;8.90;75.80;;;;;;5095221;28;20032;-70
2021/12/06 08:49:35;;;;;;;7.32;1.42;;;8.90;75.30;;;;;;5112304;28;20092;-69
2021/12/06 08:52:02;;;;;;;4.63;1.30;;;9.00;75.80;;;;;;5112911;28;20020;-70
2021/12/06 08:54:29;;;;;;;5.70;1.45;;;9.00;75.10;;;;;;5095843;28;20067;-70
2021/12/06 08:56:57;;;;;;;3.47;1.08;;;9.00;75.30;;;;;;5111329;28;20443;-69
2021/12/06 08:59:23;;;;;;;6.05;1.40;;;8.90;74.80;;;;;;5110635;28;20012;-70
2021/12/06 09:01:50;;;;;;;5.78;1.65;;;9.00;75.00;;;;;;5110915;28;20030;-70
2021/12/06 09:04:16;;;;;;;6.38;1.40;;;8.90;75.00;;;;;;5110010;28;20106;-70
2021/12/06 09:06:46;;;;;;;6.95;1.40;;;9.00;75.40;;;;;;5109042;27;20103;-70
2021/12/06 09:09:13;;;;;;;2.60;1.02;;;9.10;76.00;;;;;;5109919;28;20019;-70
2021/12/06 09:11:42;;;;;;;7.05;1.15;;;9.20;75.20;;;;;;5106938;28;20077;-71
2021/12/06 09:14:09;;;;;;;3.97;1.08;;;9.20;75.40;;;;;;5085060;27;20032;-71
2021/12/06 09:16:37;;;;;;;5.00;1.30;;;9.20;75.10;;;;;;5084892;28;20035;-71
2021/12/06 09:19:05;;;;;;;2.67;0.93;;;9.30;74.90;;;;;;5088488;27;20098;-71
2021/12/06 09:21:32;;;;;;;3.00;0.98;;;9.50;74.60;;;;;;5107054;28;20119;-71
2021/12/06 09:24:00;;;;;;;4.50;1.15;;;9.50;74.80;;;;;;5109538;27;20103;-70
2021/12/06 09:26:28;;;;;;;4.07;1.45;;;9.40;74.30;;;;;;5106656;28;20111;-70
2021/12/06 09:28:55;;;;;;;4.22;1.10;;;9.40;74.00;;;;;;5095148;28;20042;-70
2021/12/06 09:31:21;;;;;;;3.15;1.38;;;9.40;74.30;;;;;;5109307;28;20038;-70
2021/12/06 09:33:47;;;;;;;7.22;1.17;;;9.30;74.30;;;;;;5110943;28;20023;-71
2021/12/06 09:36:13;;;;;;;4.63;1.00;;;9.40;74.10;;;;;;5094390;28;20038;-70
2021/12/06 09:38:40;;;;;;;4.32;1.25;;;9.40;74.70;;;;;;5110081;27;20020;-70
2021/12/06 09:41:21;;;;;;;3.35;1.10;;;9.40;74.50;;;;;;5110843;27;20011;-70
2021/12/06 09:43:48;;;;;;;7.70;1.20;;;9.40;74.20;;;;;;5098439;28;20028;-70
2021/12/06 09:46:14;;;;;;;5.65;1.17;;;9.50;74.70;;;;;;5110432;28;20028;-70
2021/12/06 09:48:42;;;;;;;4.88;1.42;;;9.70;74.20;;;;;;5110815;28;20555;-71
2021/12/06 09:51:14;;;;;;;3.90;1.08;;;9.90;74.10;;;;;;5110899;28;20024;-71
2021/12/06 09:53:42;;;;;;;3.00;1.05;;;10.00;73.80;;;;;;5108873;28;20051;-70
2021/12/06 09:56:12;;;;;;;3.28;1.13;;;10.00;72.70;;;;;;5110317;27;20488;-70
2021/12/06 09:58:39;;;;;;;3.45;1.25;;;10.00;72.30;;;;;;5110747;27;20105;-70
2021/12/06 10:01:10;;;;;;;3.03;1.30;;;9.90;72.20;;;;;;5110252;28;20636;-70
2021/12/06 10:03:36;;;;;;;4.38;1.20;;;9.80;72.40;;;;;;5092458;28;20028;-70
2021/12/06 10:06:04;;;;;;;4.63;1.55;;;9.80;72.60;;;;;;5109607;28;20390;-70
2021/12/06 10:08:33;;;;;;;4.47;1.40;;;9.70;72.70;;;;;;5109570;28;20023;-70
2021/12/06 10:10:59;;;;;;;4.20;1.63;;;9.70;73.50;;;;;;5107507;28;20027;-71
2021/12/06 10:13:25;;;;;;;2.85;1.50;;;9.80;73.00;;;;;;5112458;27;20514;-72
2021/12/06 10:15:52;;;;;;;3.80;1.65;;;9.80;73.30;;;;;;5111871;27;20118;-70
2021/12/06 10:18:20;;;;;;;4.50;1.63;;;9.80;73.60;;;;;;5108106;28;20480;-71
2021/12/06 10:20:47;;;;;;;5.55;1.75;;;9.80;73.10;;;;;;5107045;28;20055;-71
2021/12/06 10:23:14;;;;;;;5.90;2.47;;;9.80;73.90;;;;;;5105475;27;20446;-71
2021/12/06 10:25:43;;;;;;;7.65;2.33;;;9.70;73.30;;;;;;5110032;28;20026;-71
2021/12/06 10:28:09;;;;;;;5.47;1.63;;;9.60;73.80;;;;;;5110200;28;20155;-71
2021/12/06 10:30:39;;;;;;;4.20;1.88;;;9.70;73.60;;;;;;5111414;28;20019;-71
2021/12/06 10:33:09;;;;;;;6.45;1.88;;;9.70;74.20;;;;;;5111298;28;20384;-71
2021/12/06 10:35:39;;;;;;;4.63;1.42;;;9.80;73.70;;;;;;5109907;28;20023;-71
2021/12/06 10:38:06;;;;;;;3.42;1.45;;;9.80;74.00;;;;;;5109708;28;20023;-71
2021/12/06 10:40:37;;;;;;;4.65;1.42;;;9.80;74.50;;;;;;5092451;28;20034;-71
2021/12/06 10:43:06;;;;;;;4.43;1.60;;;9.80;73.80;;;;;;5109228;28;20053;-71
2021/12/06 10:45:54;;;;;;;2.85;1.60;;;9.80;73.80;;;;;;5110868;28;20055;-71
2021/12/06 10:48:23;;;;;;;5.32;1.77;;;9.70;74.10;;;;;;5110077;28;20024;-71
2021/12/06 10:50:51;;;;;;;4.38;1.30;;;9.60;74.50;;;;;;5107540;28;20039;-71
2021/12/06 10:53:22;;;;;;;5.20;1.42;;;9.60;74.80;;;;;;5109522;28;20535;-71
2021/12/06 10:55:52;;;;;;;5.75;1.50;;;9.50;74.80;;;;;;5108519;28;20430;-74
2021/12/06 10:58:21;;;;;;;4.55;1.70;;;9.40;75.40;;;;;;5107811;28;20023;-74
2021/12/06 11:00:54;;;;;;;4.22;1.13;;;9.50;75.50;;;;;;5102434;28;20059;-74
2021/12/06 11:03:44;;;;;;;5.32;1.38;;;9.50;75.60;;;;;;5109816;28;20515;-70
2021/12/06 11:06:16;;;;;;;4.93;1.48;;;9.40;76.80;;;;;;5110446;28;20365;-74
2021/12/06 11:08:42;;;;;;;4.93;1.30;;;9.50;76.00;;;;;;5107650;28;20030;-74
2021/12/06 11:11:12;;;;;;;2.85;0.90;;;9.50;76.20;;;;;;5109424;28;20053;-75
2021/12/06 11:13:43;;;;;;;3.10;1.05;;;9.50;76.40;;;;;;5113520;27;20023;-73
2021/12/06 11:16:19;;;;;;;4.60;1.30;;;9.50;76.40;;;;;;5105194;28;20530;-73
2021/12/06 11:18:53;;;;;;;5.53;1.58;;;9.50;76.70;;;;;;5109412;28;20078;-73
2021/12/06 11:21:25;;;;;;;6.35;1.30;;;9.40;76.90;;;;;;5109826;28;20447;-74
2021/12/06 11:24:08;;;;;;;4.28;1.05;;;9.30;77.70;;;;;;5095744;28;20028;-74
2021/12/06 11:26:56;;;;;;;2.88;1.00;;;9.30;77.20;;;;;;5108435;28;20114;-74
2021/12/06 11:29:42;;;;;;;4.53;1.10;;;9.30;77.70;;;;;;5093730;28;20392;-74
2021/12/06 11:32:07;;;;;;;4.57;1.27;;;9.30;77.90;;;;;;5092817;28;20115;-74
2021/12/06 11:34:44;;;;;;;4.75;1.05;;;9.30;78.90;;;;;;5107361;28;20119;-74
2021/12/06 11:37:17;;;;;;;3.65;0.85;;;9.30;78.80;;;;;;5097240;28;20434;-73
2021/12/06 11:39:45;;;;;;;5.28;1.17;;;9.30;79.20;;;;;;5110522;28;20028;-73
2021/12/06 11:42:11;;;;;;;3.13;0.80;;;9.40;79.70;;;;;;5099644;28;20047;-74
2021/12/06 11:44:42;;;;;;;3.45;0.70;;;9.50;79.60;;;;;;5104536;28;20036;-73
2021/12/06 11:47:14;;;;;;;3.42;1.27;;;9.50;80.10;;;;;;5109258;28;20022;-71
2021/12/06 11:49:49;;;;;;;2.83;0.85;;;9.60;79.50;;;;;;5117861;28;20051;-70
2021/12/06 11:52:20;;;;;;;2.65;0.77;;;9.50;79.40;;;;;;5093546;28;20142;-72
2021/12/06 11:54:53;;;;;;;4.78;0.90;;;9.50;79.50;;;;;;5110347;28;20050;-73
2021/12/06 11:57:29;;;;;;;2.38;0.75;;;9.50;79.80;;;;;;5110397;28;20461;-73
2021/12/06 12:00:10;;;;;;;4.97;1.98;;;9.50;80.60;;;;;;5108652;28;20023;-73
2021/12/06 12:02:44;;;;;;;3.55;0.90;;;9.60;80.20;;;;;;5093006;28;20035;-73
2021/12/06 12:05:19;;;;;;;6.20;1.40;;;9.60;80.50;;;;;;5094015;28;20023;-75
2021/12/06 12:08:03;;;;;;;4.28;0.88;;;9.50;81.10;;;;;;5104989;28;20034;-70
2021/12/06 12:10:47;;;;;;;3.35;0.80;;;9.60;81.00;;;;;;5107170;28;20055;-73
2021/12/06 12:13:30;;;;;;;2.72;0.77;;;9.70;81.30;;;;;;5106543;28;20031;-73
2021/12/06 12:16:17;;;;;;;4.38;0.82;;;9.80;81.30;;;;;;5104642;28;20043;-72
2021/12/06 12:18:43;;;;;;;4.35;0.98;;;9.90;81.10;;;;;;5103791;28;20062;-76
2021/12/06 12:21:09;;;;;;;4.53;0.93;;;9.90;81.10;;;;;;5108442;28;20074;-70
2021/12/06 12:23:35;;;;;;;4.38;0.80;;;9.90;81.30;;;;;;5100199;28;20032;-70
2021/12/06 12:26:09;;;;;;;5.28;0.95;;;9.90;81.10;;;;;;5100789;28;20024;-70
2021/12/06 12:31:36;;;;;;;4.55;0.80;;;9.80;81.50;;;;;;5021753;28;20090;-71
2021/12/06 12:34:02;;;;;;;4.72;0.82;;;9.80;82.00;;;;;;5009877;28;20501;-71
2021/12/06 12:36:28;;;;;;;3.30;1.50;;;9.90;81.80;;;;;;5008834;28;20037;-70
2021/12/06 12:38:56;;;;;;;3.13;0.65;;;9.90;81.50;;;;;;5012962;28;20053;-71
2021/12/06 12:41:24;;;;;;;5.03;0.85;;;9.80;81.80;;;;;;5019029;28;20040;-70
2021/12/06 12:43:54;;;;;;;4.03;1.00;;;9.70;81.60;;;;;;5025984;28;20087;-69
2021/12/06 12:46:23;;;;;;;6.72;1.10;;;9.80;82.10;;;;;;5031064;28;20072;-69
2021/12/06 12:48:52;;;;;;;4.88;1.10;;;9.80;82.50;;;;;;5023806;28;20061;-70
2021/12/06 12:51:29;;;;;;;4.53;0.75;;;9.80;83.10;;;;;;5028073;28;20052;-69
2021/12/06 12:53:59;;;;;;;5.00;0.75;;;9.80;82.80;;;;;;5010087;28;20432;-73
2021/12/06 12:56:30;;;;;;;7.22;0.90;;;9.80;82.60;;;;;;5025854;28;20502;-69
2021/12/06 12:58:56;;;;;;;4.72;1.15;;;9.90;83.10;;;;;;5025334;28;20059;-69
2021/12/06 13:01:25;;;;;;;2.58;0.68;;;10.00;83.30;;;;;;5024144;28;20590;-71
2021/12/06 13:03:57;;;;;;;4.60;0.90;;;10.00;82.90;;;;;;5024747;28;20101;-70
2021/12/06 13:06:28;;;;;;;1.92;0.73;;;10.00;83.10;;;;;;5039256;28;20038;-70
2021/12/06 13:08:58;;;;;;;2.92;0.90;;;10.00;83.70;;;;;;5108615;28;20134;-71
2021/12/06 13:11:42;;;;;;;4.97;0.98;;;10.00;83.10;;;;;;5108601;28;20023;-71
2021/12/06 13:14:35;;;;;;;4.10;0.82;;;10.10;83.60;;;;;;5090123;28;20027;-70
2021/12/06 13:17:05;;;;;;;3.78;0.70;;;10.10;83.90;;;;;;5106857;28;20020;-70
2021/12/06 13:22:16;;;;;;;2.38;0.55;;;10.10;83.80;;;;;;5105294;28;20035;-72
2021/12/06 13:24:47;;;;;;;2.67;0.60;;;10.00;83.60;;;;;;5107689;28;20031;-70